Time;durP1;ratioP1;P1;durP2;ratioP2;P2;SDS_P1;SDS_P2;PMS_P1;PMS_P2;Temp;Humidity;BMP_temperature;BMP_pressure;BME280_temperature;BME280_humidity;BME280_pressure;Samples;Min_cycle;Max_cycle;Signal;HPM_P1;HPM_P2
2021/10/19 00:00:23;;;;;;;;;;;;;;;9.51;61.16;98713.78;5060905;28;20026;-75
2021/10/19 00:02:51;;;;;;;;;;;;;;;9.47;61.53;98695.34;5077005;28;19924;-75
2021/10/19 00:05:17;;;;;;;;;;;;;;;9.51;62.23;98705.78;5093950;28;19946;-75
2021/10/19 00:07:43;;;;;;;;;;;;;;;9.51;62.79;98713.78;5094223;28;19927;-75
2021/10/19 00:10:09;;;;;;;;;;;;;;;9.39;63.51;98700.50;5077069;28;19920;-74
2021/10/19 00:12:35;;;;;;;;;;;;;;;9.35;63.58;98720.41;5095105;28;19923;-75
2021/10/19 00:15:00;;;;;;;;;;;;;;;9.41;63.91;98711.91;5077148;28;19976;-75
2021/10/19 00:17:26;;;;;;;;;;;;;;;9.40;64.24;98720.91;5093687;28;20389;-76
2021/10/19 00:19:52;;;;;;;;;;;;;;;9.42;64.43;98718.09;5093613;28;19959;-75
2021/10/19 00:22:17;;;;;;;;;;;;;;;9.51;64.46;98711.94;5076881;28;19920;-76
2021/10/19 00:24:43;;;;;;;;;;;;;;;9.47;64.96;98721.19;5093453;28;20479;-76
2021/10/19 00:27:09;;;;;;;;;;;;;;;9.49;64.74;98704.09;5060298;28;19928;-77
2021/10/19 00:29:34;;;;;;;;;;;;;;;9.39;65.61;98708.50;5060446;28;20383;-75
2021/10/19 00:32:00;;;;;;;;;;;;;;;9.38;65.87;98698.81;5093410;28;20379;-75
2021/10/19 00:34:26;;;;;;;;;;;;;;;9.37;66.80;98693.63;5094641;28;20028;-76
2021/10/19 00:36:52;;;;;;;;;;;;;;;9.36;66.75;98666.09;5093422;28;19920;-75
2021/10/19 00:39:17;;;;;;;;;;;;;;;9.38;67.04;98674.81;5076005;28;19924;-75
2021/10/19 00:41:43;;;;;;;;;;;;;;;9.44;67.20;98663.63;5094685;28;19920;-74
2021/10/19 00:44:09;;;;;;;;;;;;;;;9.55;67.24;98675.19;5076594;28;19928;-75
2021/10/19 00:46:34;;;;;;;;;;;;;;;9.58;67.06;98664.25;5042891;28;19920;-76
2021/10/19 00:49:00;;;;;;;;;;;;;;;9.59;67.75;98663.25;5059603;28;19937;-76
2021/10/19 00:51:26;;;;;;;;;;;;;;;9.62;68.01;98657.66;5076507;28;19926;-74
2021/10/19 00:53:51;;;;;;;;;;;;;;;9.59;68.39;98653.47;5059545;28;19919;-75
2021/10/19 00:56:17;;;;;;;;;;;;;;;9.70;67.93;98642.69;5092983;28;19920;-74
2021/10/19 00:58:43;;;;;;;;;;;;;;;9.82;67.82;98661.28;5059375;28;20390;-75
2021/10/19 01:01:09;;;;;;;;;;;;;;;9.75;68.15;98660.97;5059385;28;19923;-75
2021/10/19 01:03:35;;;;;;;;;;;;;;;9.77;68.16;98650.97;5075816;28;19927;-75
2021/10/19 01:06:01;;;;;;;;;;;;;;;9.79;67.30;98651.72;5075567;28;19919;-74
2021/10/19 01:08:27;;;;;;;;;;;;;;;9.82;67.70;98661.28;5059531;28;19926;-74
2021/10/19 01:10:53;;;;;;;;;;;;;;;9.80;67.84;98666.72;5092825;28;20293;-76
2021/10/19 01:13:19;;;;;;;;;;;;;;;9.82;67.60;98654.09;5075922;28;19973;-75
2021/10/19 01:15:45;;;;;;;;;;;;;;;9.86;67.87;98644.84;5092554;28;19919;-76
2021/10/19 01:18:15;;;;;;;;;;;;;;;9.79;68.51;98646.38;5092428;28;19926;-76
2021/10/19 01:20:41;;;;;;;;;;;;;;;9.79;68.18;98641.03;5075427;28;19968;-76
2021/10/19 01:23:06;;;;;;;;;;;;;;;9.77;68.18;98642.13;5074669;28;20371;-76
2021/10/19 01:25:32;;;;;;;;;;;;;;;9.76;68.29;98641.28;5091411;28;19932;-74
2021/10/19 01:28:03;;;;;;;;;;;;;;;9.79;68.34;98638.34;5075846;28;20019;-75
2021/10/19 01:30:29;;;;;;;;;;;;;;;9.79;68.58;98635.69;5075560;28;19931;-76
2021/10/19 01:32:55;;;;;;;;;;;;;;;9.80;68.54;98637.38;5093553;28;19920;-74
2021/10/19 01:35:40;;;;;;;;;;;;;;;9.67;69.29;98634.09;5075512;28;19920;-74
2021/10/19 01:38:06;;;;;;;;;;;;;;;9.70;68.97;98644.50;5042186;28;19962;-75
2021/10/19 01:40:32;;;;;;;;;;;;;;;9.75;69.16;98639.63;5075385;28;19927;-76
2021/10/19 01:42:58;;;;;;;;;;;;;;;9.77;68.92;98626.97;5075314;28;20307;-75
2021/10/19 01:45:24;;;;;;;;;;;;;;;9.83;69.00;98630.94;5058787;28;20339;-75
2021/10/19 01:47:50;;;;;;;;;;;;;;;9.90;68.79;98621.41;5075480;28;19919;-76
2021/10/19 01:50:16;;;;;;;;;;;;;;;9.85;69.12;98612.94;5092187;28;19927;-76
2021/10/19 01:52:41;;;;;;;;;;;;;;;9.81;69.86;98625.72;5075350;28;19920;-75
2021/10/19 01:55:07;;;;;;;;;;;;;;;9.75;69.91;98615.59;5075277;28;19920;-75
2021/10/19 01:57:33;;;;;;;;;;;;;;;9.82;69.61;98610.56;5075390;28;19927;-74
2021/10/19 01:59:59;;;;;;;;;;;;;;;9.86;69.71;98604.81;5075661;28;19924;-76
2021/10/19 02:02:25;;;;;;;;;;;;;;;9.88;69.75;98593.97;5058671;28;19927;-76
2021/10/19 02:04:52;;;;;;;;;;;;;;;9.78;70.38;98591.31;5059022;28;20349;-76
2021/10/19 02:07:18;;;;;;;;;;;;;;;9.82;70.01;98598.06;5075120;28;19920;-75
2021/10/19 02:09:44;;;;;;;;;;;;;;;9.85;70.11;98587.09;5093200;28;19942;-76
2021/10/19 02:12:10;;;;;;;;;;;;;;;9.94;69.55;98590.78;5093098;28;19920;-75
2021/10/19 02:14:36;;;;;;;;;;;;;;;9.96;69.77;98588.81;5091844;28;19926;-75
2021/10/19 02:17:02;;;;;;;;;;;;;;;10.09;69.25;98568.03;5075159;28;19948;-74
2021/10/19 02:19:29;;;;;;;;;;;;;;;10.16;69.29;98568.34;5091837;28;19941;-75
2021/10/19 02:21:55;;;;;;;;;;;;;;;10.04;70.09;98564.06;5075116;28;20018;-75
2021/10/19 02:24:21;;;;;;;;;;;;;;;10.10;69.51;98574.22;5091746;28;19928;-76
2021/10/19 02:26:46;;;;;;;;;;;;;;;10.13;69.53;98576.63;5074875;28;20439;-74
2021/10/19 02:29:13;;;;;;;;;;;;;;;10.13;69.89;98576.63;5075407;28;19927;-74
2021/10/19 02:31:38;;;;;;;;;;;;;;;9.97;70.60;98583.34;5075096;28;20026;-76
2021/10/19 02:34:04;;;;;;;;;;;;;;;10.06;70.37;98596.84;5074800;28;20020;-76
2021/10/19 02:36:32;;;;;;;;;;;;;;;10.10;70.06;98596.41;5058041;28;19926;-75
2021/10/19 02:38:59;;;;;;;;;;;;;;;10.10;69.75;98587.56;5058414;28;19963;-76
2021/10/19 02:41:24;;;;;;;;;;;;;;;10.07;70.58;98586.00;5057727;28;19927;-75
2021/10/19 02:43:50;;;;;;;;;;;;;;;10.00;70.91;98586.69;5091613;28;19924;-74
2021/10/19 02:46:16;;;;;;;;;;;;;;;10.06;70.43;98583.50;5091204;28;19920;-76
2021/10/19 02:48:42;;;;;;;;;;;;;;;10.09;70.58;98588.56;5057688;28;20378;-77
2021/10/19 02:51:08;;;;;;;;;;;;;;;10.10;70.97;98590.25;5058102;28;19919;-76
2021/10/19 02:53:34;;;;;;;;;;;;;;;10.07;70.91;98590.50;5057738;28;20401;-76
2021/10/19 02:55:59;;;;;;;;;;;;;;;9.98;71.43;98595.69;5057321;28;20034;-77
2021/10/19 02:58:25;;;;;;;;;;;;;;;10.12;70.86;98582.94;5058727;28;19928;-76
2021/10/19 03:00:51;;;;;;;;;;;;;;;10.14;71.01;98588.97;5058260;28;19920;-75
2021/10/19 03:03:17;;;;;;;;;;;;;;;10.08;71.43;98581.50;5095173;28;19919;-77
2021/10/19 03:05:42;;;;;;;;;;;;;;;10.17;70.51;98591.38;5061665;28;19920;-78
2021/10/19 03:08:08;;;;;;;;;;;;;;;10.24;70.67;98591.69;5062498;28;19920;-77
2021/10/19 03:10:34;;;;;;;;;;;;;;;10.38;70.69;98584.13;5078552;28;20382;-79
2021/10/19 03:13:00;;;;;;;;;;;;;;;10.37;70.50;98584.25;5045804;28;19919;-78
2021/10/19 03:15:25;;;;;;;;;;;;;;;10.34;70.45;98576.50;5078591;28;19927;-79
2021/10/19 03:17:51;;;;;;;;;;;;;;;10.25;70.88;98580.88;5061917;28;19927;-79
2021/10/19 03:20:17;;;;;;;;;;;;;;;10.32;70.54;98576.66;5061771;28;19927;-78
2021/10/19 03:22:42;;;;;;;;;;;;;;;10.34;70.87;98576.50;5095292;28;19920;-80
2021/10/19 03:25:08;;;;;;;;;;;;;;;10.39;70.61;98583.13;5061292;28;20034;-77
2021/10/19 03:27:34;;;;;;;;;;;;;;;10.40;70.88;98587.47;5061379;28;19927;-76
2021/10/19 03:30:00;;;;;;;;;;;;;;;10.56;70.58;98580.72;5044206;28;19920;-74
2021/10/19 03:32:25;;;;;;;;;;;;;;;10.62;69.69;98570.34;5075649;28;19920;-75
2021/10/19 03:34:51;;;;;;;;;;;;;;;10.61;70.09;98565.13;5084429;28;19920;-75
2021/10/19 03:37:17;;;;;;;;;;;;;;;10.64;69.39;98560.34;5057883;28;20045;-75
2021/10/19 03:39:43;;;;;;;;;;;;;;;10.62;69.15;98574.84;5041018;28;19927;-75
2021/10/19 03:42:08;;;;;;;;;;;;;;;10.63;69.15;98571.16;5074925;28;19943;-75
2021/10/19 03:44:34;;;;;;;;;;;;;;;10.65;68.71;98575.41;5040980;28;19963;-75
2021/10/19 03:47:00;;;;;;;;;;;;;;;10.71;68.18;98579.31;5073925;28;19927;-74
2021/10/19 03:49:25;;;;;;;;;;;;;;;10.73;66.76;98577.34;5040647;28;19920;-76
2021/10/19 03:51:51;;;;;;;;;;;;;;;10.75;66.41;98575.38;5040590;28;20019;-76
2021/10/19 03:54:17;;;;;;;;;;;;;;;10.76;65.24;98577.06;5057009;28;20031;-76
2021/10/19 03:56:42;;;;;;;;;;;;;;;10.71;64.44;98573.97;5073608;28;19927;-75
2021/10/19 03:59:08;;;;;;;;;;;;;;;10.70;63.88;98582.97;5024001;28;19928;-76
2021/10/19 04:01:34;;;;;;;;;;;;;;;10.77;63.08;98575.25;5056863;28;19965;-77
2021/10/19 04:03:59;;;;;;;;;;;;;;;10.75;62.62;98585.22;5074061;28;20240;-76
2021/10/19 04:06:27;;;;;;;;;;;;;;;10.79;62.05;98587.47;5040094;28;19924;-76
2021/10/19 04:08:53;;;;;;;;;;;;;;;10.78;62.09;98584.94;5040324;28;19994;-77
2021/10/19 04:11:19;;;;;;;;;;;;;;;10.82;60.96;98584.50;5023322;28;19920;-76
2021/10/19 04:13:45;;;;;;;;;;;;;;;10.85;61.19;98581.56;5055579;28;19920;-76
2021/10/19 04:16:11;;;;;;;;;;;;;;;10.85;60.34;98594.09;5056912;28;19927;-76
2021/10/19 04:18:36;;;;;;;;;;;;;;;10.78;60.36;98584.94;5056643;28;19920;-77
2021/10/19 04:21:02;;;;;;;;;;;;;;;10.81;60.22;98596.19;5056621;28;19978;-77
2021/10/19 04:23:28;;;;;;;;;;;;;;;10.80;59.71;98589.16;5056742;28;19924;-74
2021/10/19 04:25:54;;;;;;;;;;;;;;;10.82;60.08;98592.53;5056848;28;20026;-77
2021/10/19 04:28:19;;;;;;;;;;;;;;;10.90;59.67;98591.81;5073701;28;19973;-78
2021/10/19 04:30:47;;;;;;;;;;;;;;;10.91;58.67;98586.34;5056324;28;19940;-75
2021/10/19 04:33:13;;;;;;;;;;;;;;;10.92;58.11;98574.66;5073434;28;19926;-75
2021/10/19 04:35:38;;;;;;;;;;;;;;;10.96;57.88;98574.38;5056737;28;20295;-76
2021/10/19 04:38:05;;;;;;;;;;;;;;;11.03;58.21;98572.81;5040593;28;19927;-76
2021/10/19 04:40:33;;;;;;;;;;;;;;;11.12;57.60;98569.25;5056972;28;20378;-77
2021/10/19 04:43:00;;;;;;;;;;;;;;;11.06;56.59;98568.00;5074723;28;19920;-78
2021/10/19 04:45:25;;;;;;;;;;;;;;;11.11;57.13;98564.91;5079234;28;19920;-80
2021/10/19 04:47:51;;;;;;;;;;;;;;;11.13;57.04;98562.91;5051872;28;19942;-77
2021/10/19 04:50:17;;;;;;;;;;;;;;;11.12;56.53;98564.75;5051590;28;20450;-78
2021/10/19 04:52:43;;;;;;;;;;;;;;;11.10;56.09;98564.06;5066119;28;19951;-76
2021/10/19 04:55:09;;;;;;;;;;;;;;;11.13;56.02;98562.91;5102093;28;19942;-77
2021/10/19 04:57:35;;;;;;;;;;;;;;;11.23;55.95;98562.88;5081230;28;19942;-76
2021/10/19 05:00:01;;;;;;;;;;;;;;;11.20;56.07;98574.72;5076945;28;19920;-77
2021/10/19 05:02:46;;;;;;;;;;;;;;;11.20;55.80;98569.38;5075820;28;19966;-76
2021/10/19 05:05:12;;;;;;;;;;;;;;;11.31;56.15;98561.16;5042749;28;19921;-80
2021/10/19 05:07:38;;;;;;;;;;;;;;;11.99;60.29;98568.03;5077201;28;20456;-74
2021/10/19 05:10:04;;;;;;;;;;;;;;;12.16;54.06;98561.88;5075720;28;19928;-77
2021/10/19 05:12:29;;;;;;;;;;;;;;;12.08;53.76;98565.31;5074815;28;19924;-77
2021/10/19 05:14:57;;;;;;;;;;;;;;;12.02;54.24;98570.41;5057919;28;20310;-78
2021/10/19 05:17:23;;;;;;;;;;;;;;;11.94;53.95;98568.50;5041102;28;20341;-78
2021/10/19 05:19:54;;;;;;;;;;;;;;;11.89;53.94;98568.97;5058367;28;19920;-77
2021/10/19 05:22:24;;;;;;;;;;;;;;;11.82;53.54;98564.31;5056925;28;20290;-77
2021/10/19 05:24:49;;;;;;;;;;;;;;;11.87;54.01;98568.25;5081733;28;19925;-78
2021/10/19 05:27:15;;;;;;;;;;;;;;;11.89;53.51;98563.59;5064641;28;19978;-77
2021/10/19 05:29:42;;;;;;;;;;;;;;;11.86;53.62;98566.56;5081218;28;20018;-78
2021/10/19 05:32:07;;;;;;;;;;;;;;;11.84;53.65;98560.50;5049572;28;20069;-77
2021/10/19 05:34:33;;;;;;;;;;;;;;;11.83;53.67;98564.19;5067068;28;19969;-77
2021/10/19 05:36:59;;;;;;;;;;;;;;;11.88;53.90;98569.97;5046997;28;19924;-77
2021/10/19 05:39:24;;;;;;;;;;;;;;;11.85;53.87;98574.78;5049966;28;19920;-75
2021/10/19 05:41:50;;;;;;;;;;;;;;;11.68;54.28;98566.50;5041084;28;19921;-76
2021/10/19 05:44:16;;;;;;;;;;;;;;;11.61;54.70;98561.88;5038521;28;19920;-76
2021/10/19 05:46:42;;;;;;;;;;;;;;;11.62;55.16;98574.25;5055585;28;20387;-76
2021/10/19 05:49:07;;;;;;;;;;;;;;;11.56;55.25;98580.22;5038853;28;19927;-75
2021/10/19 05:51:33;;;;;;;;;;;;;;;11.50;55.45;98580.81;5038834;28;20402;-75
2021/10/19 05:53:59;;;;;;;;;;;;;;;11.42;55.77;98579.69;5038916;28;19928;-77
2021/10/19 05:56:25;;;;;;;;;;;;;;;11.48;56.14;98567.59;5038759;28;19920;-79
2021/10/19 05:58:51;;;;;;;;;;;;;;;11.39;56.59;98573.81;5038345;28;20291;-77
2021/10/19 06:01:16;;;;;;;;;;;;;;;11.38;57.06;98572.97;5054886;28;19920;-77
2021/10/19 06:03:42;;;;;;;;;;;;;;;11.37;57.09;98571.28;5054697;28;19924;-79
2021/10/19 06:06:08;;;;;;;;;;;;;;;11.31;57.14;98561.16;5038373;28;20289;-75
2021/10/19 06:08:34;;;;;;;;;;;;;;;11.31;57.38;98558.47;5054829;28;20291;-76
2021/10/19 06:11:00;;;;;;;;;;;;;;;11.33;57.60;98564.53;5038253;28;19969;-76
2021/10/19 06:13:26;;;;;;;;;;;;;;;11.32;57.92;98557.50;5054643;28;19920;-77
2021/10/19 06:15:52;;;;;;;;;;;;;;;11.40;58.29;98560.28;5033190;28;19923;-75
2021/10/19 06:18:18;;;;;;;;;;;;;;;11.41;58.63;98551.28;5058340;28;20012;-76
2021/10/19 06:20:46;;;;;;;;;;;;;;;11.28;58.55;98548.06;5060111;28;19919;-80
2021/10/19 06:23:12;;;;;;;;;;;;;;;11.15;59.18;98560.94;5059077;28;19954;-75
2021/10/19 06:25:38;;;;;;;;;;;;;;;11.22;58.76;98564.72;5058107;28;19965;-79
2021/10/19 06:28:04;;;;;;;;;;;;;;;11.21;58.61;98568.41;5092177;28;19928;-76
2021/10/19 06:30:29;;;;;;;;;;;;;;;11.18;58.24;98558.81;5074503;28;19923;-77
2021/10/19 06:32:55;;;;;;;;;;;;;;;11.20;58.72;98569.38;5057865;28;19927;-77
2021/10/19 06:35:21;;;;;;;;;;;;;;;11.19;58.84;98573.03;5058568;28;20297;-76
2021/10/19 06:37:47;;;;;;;;;;;;;;;11.21;58.72;98560.38;5061837;28;19924;-81
2021/10/19 06:40:12;;;;;;;;;;;;;;;11.19;58.43;98568.53;5062089;28;20429;-77
2021/10/19 06:42:38;;;;;;;;;;;;;;;11.06;59.01;98568.00;5061895;28;20302;-77
2021/10/19 06:45:04;;;;;;;;;;;;;;;11.03;58.88;98572.81;5078069;28;19919;-76
2021/10/19 06:47:30;;;;;;;;;;;;;;;11.08;58.77;98575.88;5061089;28;19985;-76
2021/10/19 06:49:56;;;;;;;;;;;;;;;11.11;58.39;98575.59;5094938;28;19963;-77
2021/10/19 06:52:22;;;;;;;;;;;;;;;11.01;58.34;98575.59;5061670;28;19920;-77
2021/10/19 06:54:48;;;;;;;;;;;;;;;11.03;58.20;98573.66;5078076;28;20279;-78
2021/10/19 06:57:13;;;;;;;;;;;;;;;11.18;58.20;98587.41;5061622;28;20289;-76
2021/10/19 06:59:39;;;;;;;;;;;;;;;11.19;57.89;98579.22;5078420;28;20264;-76
2021/10/19 07:02:05;;;;;;;;;;;;;;;11.25;57.83;98582.31;5078455;28;20299;-76
2021/10/19 07:04:30;;;;;;;;;;;;;;;11.20;57.75;98580.06;5078292;28;19943;-77
2021/10/19 07:06:56;;;;;;;;;;;;;;;11.31;57.37;98569.19;5060690;28;20348;-76
2021/10/19 07:09:22;;;;;;;;;;;;;;;11.31;57.45;98577.22;5094983;28;19920;-77
2021/10/19 07:11:48;;;;;;;;;;;;;;;11.37;57.35;98579.31;5061837;28;19924;-78
2021/10/19 07:14:14;;;;;;;;;;;;;;;11.33;57.31;98591.28;5078088;28;19919;-78
2021/10/19 07:16:39;;;;;;;;;;;;;;;11.31;57.30;98587.91;5078035;28;19975;-76
2021/10/19 07:19:09;;;;;;;;;;;;;;;11.28;57.34;98573.97;5078037;28;19973;-74
2021/10/19 07:21:36;;;;;;;;;;;;;;;11.30;57.41;98570.19;5061660;28;20287;-76
2021/10/19 07:24:03;;;;;;;;;;;;;;;11.40;57.39;98576.34;5095076;28;19967;-76
2021/10/19 07:26:29;;;;;;;;;;;;;;;11.41;57.61;98578.03;5045044;28;19967;-76
2021/10/19 07:28:54;;;;;;;;;;;;;;;11.54;57.24;98582.19;5061161;28;20357;-75
2021/10/19 07:31:20;;;;;;;;;;;;;;;11.45;56.93;98578.56;5077613;28;19923;-77
2021/10/19 07:33:46;;;;;;;;;;;;;;;11.46;56.96;98576.75;5078120;28;19920;-75
2021/10/19 07:36:12;;;;;;;;;;;;;;;11.43;57.34;98570.72;5061191;28;20387;-77
2021/10/19 07:38:38;;;;;;;;;;;;;;;11.38;57.42;98567.59;5059350;28;19965;-76
2021/10/19 07:41:04;;;;;;;;;;;;;;;11.39;57.21;98563.09;5072969;28;19919;-76
2021/10/19 07:43:29;;;;;;;;;;;;;;;11.43;57.04;98569.84;5077485;28;19974;-77
2021/10/19 07:45:55;;;;;;;;;;;;;;;11.51;56.83;98563.75;5061255;28;20290;-77
2021/10/19 07:48:21;;;;;;;;;;;;;;;11.53;56.78;98570.66;5060462;28;19956;-76
2021/10/19 07:50:47;;;;;;;;;;;;;;;11.45;56.64;98565.19;5060963;28;19920;-76
2021/10/19 07:53:13;;;;;;;;;;;;;;;11.46;56.63;98564.19;5060478;28;19969;-77
2021/10/19 07:55:40;;;;;;;;;;;;;;;11.51;56.42;98561.06;5075581;28;19969;-77
2021/10/19 07:58:05;;;;;;;;;;;;;;;11.66;56.34;98564.97;5058546;28;19920;-76
2021/10/19 08:00:31;;;;;;;;;;;;;;;11.76;56.14;98554.19;5058137;28;19920;-76
2021/10/19 08:02:57;;;;;;;;;;;;;;;11.76;56.08;98554.19;5074495;28;19920;-77
2021/10/19 08:05:23;;;;;;;;;;;;;;;11.85;55.28;98559.53;5074397;28;19919;-76
2021/10/19 08:07:49;;;;;;;;;;;;;;;11.77;55.54;98548.72;5091064;28;19951;-77
2021/10/19 08:10:20;;;;;;;;;;;;;;;11.69;55.60;98561.97;5075608;28;19973;-75
2021/10/19 08:12:46;;;;;;;;;;;;;;;11.73;55.25;98560.69;5077011;28;19965;-77
2021/10/19 08:15:14;;;;;;;;;;;;;;;11.75;55.30;98556.03;5077597;28;19920;-76
2021/10/19 08:17:40;;;;;;;;;;;;;;;11.70;55.47;98558.31;5076558;28;19927;-75
2021/10/19 08:20:07;;;;;;;;;;;;;;;11.68;55.47;98552.25;5093457;28;20014;-76
2021/10/19 08:22:33;;;;;;;;;;;;;;;11.72;55.33;98556.31;5076604;28;20354;-77
2021/10/19 08:24:58;;;;;;;;;;;;;;;11.59;56.05;98558.53;5077198;28;19927;-76
2021/10/19 08:27:24;;;;;;;;;;;;;;;11.60;56.22;98566.41;5059941;28;19931;-77
2021/10/19 08:29:50;;;;;;;;;;;;;;;11.47;56.61;98568.59;5076717;28;20298;-77
2021/10/19 08:32:16;;;;;;;;;;;;;;;11.53;56.38;98570.66;5059922;28;19963;-77
2021/10/19 08:34:42;;;;;;;;;;;;;;;11.54;56.52;98571.50;5076423;28;20453;-77
2021/10/19 08:37:08;;;;;;;;;;;;;;;11.57;56.95;98577.38;5094323;28;19920;-76
2021/10/19 08:39:34;;;;;;;;;;;;;;;11.60;57.16;98570.91;5059652;28;20014;-76
2021/10/19 08:42:00;;;;;;;;;;;;;;;11.68;57.03;98565.66;5092943;28;19924;-76
2021/10/19 08:44:26;;;;;;;;;;;;;;;11.77;57.00;98566.59;5059978;28;19997;-76
2021/10/19 08:46:52;;;;;;;;;;;;;;;11.80;56.86;98568.97;5092795;28;20019;-77
2021/10/19 08:49:18;;;;;;;;;;;;;;;11.81;56.61;98568.84;5059305;28;20287;-76
2021/10/19 08:51:43;;;;;;;;;;;;;;;11.81;56.94;98574.19;5059488;28;19930;-75
2021/10/19 08:54:09;;;;;;;;;;;;;;;11.79;57.06;98567.28;5075656;28;20029;-77
2021/10/19 08:56:41;;;;;;;;;;;;;;;11.90;56.58;98562.59;5059118;28;20255;-76
2021/10/19 08:59:07;;;;;;;;;;;;;;;11.89;56.78;98570.78;5058914;28;19919;-77
2021/10/19 09:01:37;;;;;;;;;;;;;;;11.97;56.40;98567.38;5051889;28;20329;-77
2021/10/19 09:04:06;;;;;;;;;;;;;;;11.85;56.78;98564.91;5064485;28;19954;-78
2021/10/19 09:06:33;;;;;;;;;;;;;;;11.83;56.94;98571.34;5055497;28;19928;-77
2021/10/19 09:09:08;;;;;;;;;;;;;;;11.89;56.98;98566.28;5072418;28;19932;-77
2021/10/19 09:11:43;;;;;;;;;;;;;;;12.07;56.79;98568.13;5055880;28;19920;-76
2021/10/19 09:14:10;;;;;;;;;;;;;;;12.10;57.05;98573.19;5039410;28;20402;-77
2021/10/19 09:16:45;;;;;;;;;;;;;;;12.07;56.89;98562.75;5022404;28;19920;-75
2021/10/19 09:19:12;;;;;;;;;;;;;;;12.05;57.43;98560.25;5055575;28;19947;-77
2021/10/19 09:21:42;;;;;;;;;;;;;;;12.08;57.14;98559.97;5055552;28;19921;-77
2021/10/19 09:24:15;;;;;;;;;;;;;;;12.15;57.68;98554.84;5088638;28;19920;-76
2021/10/19 09:26:57;;;;;;;;;;;;;;;12.22;57.26;98561.25;5071921;28;20375;-77
2021/10/19 09:29:23;;;;;;;;;;;;;;;12.17;56.56;98560.88;5022426;28;19921;-77
2021/10/19 09:31:51;;;;;;;;;;;;;;;12.06;56.87;98556.56;5071608;28;19924;-77
2021/10/19 09:34:16;;;;;;;;;;;;;;;12.07;57.05;98562.75;5022540;28;20073;-79
2021/10/19 09:36:42;;;;;;;;;;;;;;;11.91;57.50;98564.28;5022638;28;19985;-76
2021/10/19 09:39:08;;;;;;;;;;;;;;;11.89;57.75;98566.28;5072139;28;19920;-77
2021/10/19 09:41:41;;;;;;;;;;;;;;;11.78;58.28;98555.75;5054978;28;19963;-78
2021/10/19 09:44:13;;;;;;;;;;;;;;;11.77;57.92;98566.59;5055175;28;20375;-76
2021/10/19 09:46:39;;;;;;;;;;;;;;;11.63;58.73;98557.22;5038125;28;20337;-76
2021/10/19 09:49:04;;;;;;;;;;;;;;;11.54;58.96;98555.44;5038159;28;20014;-78
2021/10/19 09:51:31;;;;;;;;;;;;;;;11.52;59.53;98549.41;5022013;28;19972;-78
2021/10/19 09:53:56;;;;;;;;;;;;;;;11.45;59.82;98553.66;5038219;28;20028;-77
2021/10/19 09:56:22;;;;;;;;;;;;;;;11.50;59.96;98556.72;5054706;28;20361;-77
2021/10/19 09:58:48;;;;;;;;;;;;;;;11.40;60.47;98560.28;5038080;28;19920;-78
2021/10/19 10:01:13;;;;;;;;;;;;;;;11.31;60.55;98547.78;5054858;28;19924;-78
2021/10/19 10:03:44;;;;;;;;;;;;;;;11.26;61.21;98546.53;5022239;28;19928;-81
2021/10/19 10:06:09;;;;;;;;;;;;;;;11.28;60.93;98556.09;5038546;28;19924;-78
2021/10/19 10:08:35;;;;;;;;;;;;;;;11.28;61.14;98550.75;5038087;28;19974;-80
2021/10/19 10:11:01;;;;;;;;;;;;;;;11.38;61.06;98546.19;5070286;28;19920;-77
2021/10/19 10:13:27;;;;;;;;;;;;;;;11.20;61.56;98547.97;5054769;28;19920;-78
2021/10/19 10:15:53;;;;;;;;;;;;;;;11.25;61.57;98545.72;5054617;28;19975;-77
2021/10/19 10:18:29;;;;;;;;;;;;;;;11.20;62.03;98553.31;5054892;28;20374;-77
2021/10/19 10:20:55;;;;;;;;;;;;;;;11.14;62.35;98559.25;5071836;28;19920;-75
2021/10/19 10:23:24;;;;;;;;;;;;;;;11.19;62.08;98554.31;5021809;28;19921;-76
2021/10/19 10:25:51;;;;;;;;;;;;;;;11.13;62.12;98562.91;5054654;28;19925;-77
2021/10/19 10:28:24;;;;;;;;;;;;;;;11.15;62.30;98555.59;5054848;28;20019;-77
2021/10/19 10:30:50;;;;;;;;;;;;;;;11.39;65.72;98558.59;5055403;28;20314;-76
2021/10/19 10:33:30;;;;;;;;;;;;;;;12.05;66.25;98552.22;5071522;28;19931;-74
2021/10/19 10:35:58;;;;;;;;;;;;;;;12.55;63.51;98540.94;5037899;28;19927;-77
2021/10/19 10:38:24;;;;;;;;;;;;;;;12.45;59.94;98550.94;5038297;28;19920;-77
2021/10/19 10:40:49;;;;;;;;;;;;;;;12.21;59.64;98543.50;5038116;28;19931;-77
2021/10/19 10:43:16;;;;;;;;;;;;;;;12.19;60.88;98550.88;5054548;28;19920;-77
2021/10/19 10:45:42;;;;;;;;;;;;;;;12.23;60.71;98546.03;5038009;28;19959;-76
2021/10/19 10:48:08;;;;;;;;;;;;;;;12.27;60.78;98542.91;5037914;28;19973;-79
2021/10/19 10:50:34;;;;;;;;;;;;;;;12.25;59.55;98552.91;5070803;28;19999;-77
2021/10/19 10:53:04;;;;;;;;;;;;;;;12.07;59.96;98546.69;5072351;28;20333;-77
2021/10/19 10:55:36;;;;;;;;;;;;;;;11.94;60.36;98544.41;5021287;28;19919;-78
2021/10/19 10:58:02;;;;;;;;;;;;;;;11.84;60.55;98546.28;5054288;28;19927;-79
2021/10/19 11:00:28;;;;;;;;;;;;;;;11.75;61.03;98545.31;5037642;28;19921;-77
2021/10/19 11:03:07;;;;;;;;;;;;;;;11.73;61.16;98551.81;5055190;28;19920;-78
2021/10/19 11:05:34;;;;;;;;;;;;;;;11.63;61.28;98546.53;5071262;28;20439;-77
2021/10/19 11:08:00;;;;;;;;;;;;;;;11.61;61.66;98546.66;5054214;28;20019;-77
2021/10/19 11:10:26;;;;;;;;;;;;;;;11.48;62.15;98546.16;5021842;28;20010;-77
2021/10/19 11:13:01;;;;;;;;;;;;;;;11.41;62.63;98556.63;5037740;28;19924;-75
2021/10/19 11:15:27;;;;;;;;;;;;;;;11.34;63.04;98554.69;5054498;28;20027;-75
2021/10/19 11:17:53;;;;;;;;;;;;;;;11.25;63.39;98548.38;5037668;28;20018;-75
2021/10/19 11:20:19;;;;;;;;;;;;;;;11.23;63.08;98542.31;5037227;28;19958;-75
2021/10/19 11:22:45;;;;;;;;;;;;;;;11.31;63.19;98545.09;5055996;28;19927;-76
2021/10/19 11:25:11;;;;;;;;;;;;;;;11.21;63.62;98538.97;5057666;28;19920;-76
2021/10/19 11:27:37;;;;;;;;;;;;;;;11.15;63.73;98539.53;5074859;28;20061;-75
2021/10/19 11:30:04;;;;;;;;;;;;;;;11.12;64.18;98539.81;5074562;28;20414;-77
2021/10/19 11:32:30;;;;;;;;;;;;;;;11.08;64.39;98538.44;5040974;28;19989;-76
2021/10/19 11:34:59;;;;;;;;;;;;;;;11.09;64.35;98540.94;5040850;28;20323;-76
2021/10/19 11:37:25;;;;;;;;;;;;;;;11.14;64.26;98543.22;5057772;28;19926;-76
2021/10/19 11:40:00;;;;;;;;;;;;;;;11.14;64.35;98543.22;5074284;28;19927;-76
2021/10/19 11:42:26;;;;;;;;;;;;;;;11.16;64.14;98541.22;5057423;28;19920;-75
2021/10/19 11:44:52;;;;;;;;;;;;;;;11.23;64.34;98542.31;5041089;28;20393;-76
2021/10/19 11:47:17;;;;;;;;;;;;;;;11.27;64.09;98542.88;5057336;28;20003;-75
2021/10/19 11:49:43;;;;;;;;;;;;;;;11.25;64.05;98536.84;5040780;28;19928;-77
2021/10/19 11:52:09;;;;;;;;;;;;;;;11.15;64.52;98529.69;5040681;28;19920;-76
2021/10/19 11:54:35;;;;;;;;;;;;;;;11.12;64.77;98529.13;5057132;28;20381;-77
2021/10/19 11:57:01;;;;;;;;;;;;;;;11.16;64.53;98530.53;5040582;28;19920;-76
2021/10/19 11:59:27;;;;;;;;;;;;;;;11.13;65.16;98525.47;5057135;28;19920;-77
2021/10/19 12:01:53;;;;;;;;;;;;;;;11.03;65.49;98524.66;5040589;28;19963;-78
2021/10/19 12:04:25;;;;;;;;;;;;;;;11.08;65.06;98530.41;5040563;28;19920;-76
2021/10/19 12:06:51;;;;;;;;;;;;;;;11.16;64.99;98530.53;5057043;28;19928;-76
2021/10/19 12:09:25;;;;;;;;;;;;;;;11.14;65.43;98532.50;5073564;28;19921;-75
2021/10/19 12:11:56;;;;;;;;;;;;;;;11.05;65.46;98536.03;5040786;28;19920;-77
2021/10/19 12:14:34;;;;;;;;;;;;;;;11.07;65.95;98540.28;5040267;28;19927;-77
2021/10/19 12:17:02;;;;;;;;;;;;;;;11.09;65.92;98534.75;5023981;28;19928;-76
2021/10/19 12:19:28;;;;;;;;;;;;;;;11.08;65.88;98535.75;5024025;28;19974;-77
2021/10/19 12:21:55;;;;;;;;;;;;;;;11.04;66.19;98534.38;5056539;28;20357;-77
2021/10/19 12:24:21;;;;;;;;;;;;;;;11.08;66.19;98536.59;5056557;28;19969;-77
2021/10/19 12:26:47;;;;;;;;;;;;;;;11.13;65.96;98525.47;5040204;28;19924;-77
2021/10/19 12:29:12;;;;;;;;;;;;;;;11.17;65.86;98529.56;5039871;28;19920;-77
2021/10/19 12:31:39;;;;;;;;;;;;;;;11.23;65.48;98531.63;5073279;28;20057;-76
2021/10/19 12:34:06;;;;;;;;;;;;;;;11.25;65.32;98532.34;5072296;28;20013;-76
2021/10/19 12:36:35;;;;;;;;;;;;;;;11.07;66.23;98531.41;5040088;28;20012;-76
2021/10/19 12:39:04;;;;;;;;;;;;;;;11.13;66.03;98528.13;5073506;28;20042;-77
2021/10/19 12:41:34;;;;;;;;;;;;;;;11.12;66.00;98535.31;5056379;28;19932;-78
2021/10/19 12:44:00;;;;;;;;;;;;;;;11.07;66.25;98537.59;5023564;28;20021;-77